Time;durP1;ratioP1;P1;durP2;ratioP2;P2;SDS_P1;SDS_P2;PMS_P1;PMS_P2;Temp;Humidity;BMP_temperature;BMP_pressure;BME280_temperature;BME280_humidity;BME280_pressure;Samples;Min_cycle;Max_cycle;Signal;HPM_P1;HPM_P2
2022/07/25 00:00:18;;;;;;;;;10.00;10.00;;;;;30.67;33.15;100341.00;5015103;28;45979;-77
2022/07/25 00:02:44;;;;;;;;;9.50;8.25;;;;;30.64;33.17;100346.09;5014946;28;45669;-79
2022/07/25 00:08:35;;;;;;;;;11.75;11.00;;;;;30.55;33.48;100318.66;5014835;28;45488;-77
2022/07/25 00:11:01;;;;;;;;;12.00;11.25;;;;;30.54;33.55;100316.19;4996987;28;45961;-80
2022/07/25 00:13:35;;;;;;;;;9.75;9.00;;;;;30.51;33.79;100320.19;5014866;28;45653;-79
2022/07/25 00:16:00;;;;;;;;;13.25;11.25;;;;;30.47;33.58;100313.66;5014916;28;46073;-80
2022/07/25 00:18:50;;;;;;;;;12.00;11.25;;;;;30.45;33.75;100308.44;4996993;28;45726;-80
2022/07/25 00:25:02;;;;;;;;;9.75;9.75;;;;;30.40;33.85;100304.84;4972545;28;45839;-78
2022/07/25 00:27:36;;;;;;;;;11.00;10.50;;;;;30.29;33.81;100284.94;4957798;28;47656;-78
2022/07/25 00:33:05;;;;;;;;;11.00;9.75;;;;;30.20;34.00;100285.59;4895617;29;45795;-80
2022/07/25 00:35:31;;;;;;;;;13.00;12.00;;;;;30.26;33.87;100298.97;4879641;29;47582;-78
2022/07/25 00:37:56;;;;;;;;;11.00;11.00;;;;;30.28;34.04;100304.13;4895343;29;45669;-78
2022/07/25 00:40:24;;;;;;;;;12.75;10.50;;;;;30.23;34.31;100296.72;4895674;29;45637;-79
2022/07/25 00:42:50;;;;;;;;;9.25;9.00;;;;;30.22;34.09;100284.31;4895901;29;45855;-78
2022/07/25 00:45:15;;;;;;;;;10.00;9.50;;;;;30.22;34.45;100289.72;4895754;29;46513;-80
2022/07/25 00:47:40;;;;;;;;;12.50;11.25;;;;;30.19;34.54;100286.66;4896062;29;46409;-80
2022/07/25 00:50:07;;;;;;;;;11.00;11.00;;;;;30.16;34.32;100285.28;4895875;29;45714;-78
2022/07/25 00:52:38;;;;;;;;;12.25;10.50;;;;;30.15;34.44;100282.81;4895836;29;45850;-79
2022/07/25 00:55:14;;;;;;;;;12.50;11.00;;;;;30.10;34.47;100283.56;4895353;28;45877;-79
2022/07/25 00:57:39;;;;;;;;;10.25;10.25;;;;;30.09;34.99;100286.50;4884051;28;46918;-78
2022/07/25 01:00:29;;;;;;;;;12.75;12.00;;;;;29.99;34.72;100266.34;4917567;28;45676;-81
2022/07/25 01:03:00;;;;;;;;;10.50;9.25;;;;;29.89;34.71;100260.75;4933905;28;45574;-79
2022/07/25 01:05:25;;;;;;;;;11.50;10.50;;;;;29.90;34.89;100269.72;4917247;28;47337;-76
2022/07/25 01:07:54;;;;;;;;;14.50;12.00;;;;;29.95;35.14;100286.81;4933716;28;45648;-80
2022/07/25 01:10:20;;;;;;;;;11.25;11.00;;;;;29.78;34.82;100302.16;4967084;28;45856;-77
2022/07/25 01:12:53;;;;;;;;;9.75;9.25;;;;;29.76;35.32;100336.69;4996166;28;45533;-79
2022/07/25 01:15:38;;;;;;;;;12.50;12.00;;;;;29.51;35.58;100326.22;5014119;28;46625;-79
2022/07/25 01:18:03;;;;;;;;;10.25;10.00;;;;;29.31;35.96;100311.47;5013264;28;46246;-80
2022/07/25 01:20:30;;;;;;;;;13.00;10.75;;;;;29.20;36.20;100299.63;4995475;28;45560;-78
2022/07/25 01:22:56;;;;;;;;;7.25;7.25;;;;;29.07;36.40;100307.97;5013889;28;45813;-78
2022/07/25 01:25:23;;;;;;;;;11.75;10.00;;;;;28.97;36.66;100311.28;5013600;28;46686;-79
2022/07/25 01:27:49;;;;;;;;;9.75;9.00;;;;;28.87;36.67;100304.84;5013310;28;46148;-79
2022/07/25 01:30:16;;;;;;;;;10.00;9.75;;;;;28.73;36.24;100304.25;5013707;28;45727;-78
2022/07/25 01:32:43;;;;;;;;;8.25;8.00;;;;;28.60;36.90;100304.47;5014092;28;45746;-77
2022/07/25 01:35:09;;;;;;;;;10.25;10.00;;;;;28.49;37.13;100316.06;5013197;28;47423;-77
2022/07/25 01:37:34;;;;;;;;;9.75;9.00;;;;;28.41;37.70;100316.41;5013225;28;47280;-78
2022/07/25 01:40:00;;;;;;;;;10.00;9.00;;;;;28.26;37.66;100312.28;5013504;28;45680;-78
2022/07/25 01:42:26;;;;;;;;;9.50;9.25;;;;;28.15;37.54;100309.56;5013200;28;45852;-78
2022/07/25 01:44:52;;;;;;;;;9.00;9.00;;;;;28.02;37.59;100309.75;5013186;28;46465;-78
2022/07/25 01:47:17;;;;;;;;;10.25;10.00;;;;;27.89;38.26;100310.75;5013788;28;46611;-76
2022/07/25 01:49:43;;;;;;;;;10.75;9.75;;;;;27.79;38.61;100311.31;5013331;28;45483;-78
2022/07/25 01:55:30;;;;;;;;;10.00;8.50;;;;;27.61;38.63;100308.66;5012988;28;45688;-79
2022/07/25 01:57:55;;;;;;;;;6.00;5.00;;;;;27.51;38.98;100300.28;5013377;28;46349;-79
2022/07/25 02:00:21;;;;;;;;;8.25;7.75;;;;;27.45;39.61;100303.84;5013338;28;45583;-78
2022/07/25 02:02:46;;;;;;;;;10.25;8.75;;;;;27.38;39.32;100305.81;5013519;28;45588;-77
2022/07/25 02:11:37;;;;;;;;;10.00;9.75;;;;;27.15;39.80;100296.53;5012761;28;45630;-76
2022/07/25 02:14:03;;;;;;;;;8.50;8.50;;;;;27.07;39.92;100313.00;5013187;28;45583;-76
2022/07/25 02:16:28;;;;;;;;;10.25;8.00;;;;;27.00;40.30;100292.59;5012898;28;45619;-76
2022/07/25 02:18:54;;;;;;;;;9.25;9.00;;;;;26.93;40.29;100303.44;5013008;28;45591;-79
2022/07/25 02:21:20;;;;;;;;;10.00;8.00;;;;;26.92;40.53;100298.28;5012752;28;45586;-78
2022/07/25 02:23:45;;;;;;;;;9.00;8.00;;;;;26.87;40.18;100293.56;5013233;28;45570;-75
2022/07/25 02:26:12;;;;;;;;;9.50;9.00;;;;;26.77;41.01;100304.00;5012854;28;45921;-75
2022/07/25 02:28:37;;;;;;;;;11.75;10.50;;;;;26.67;40.88;100295.59;5012941;28;46166;-75
2022/07/25 02:31:02;;;;;;;;;11.75;9.75;;;;;26.62;41.32;100296.25;5015917;28;45538;-78
2022/07/25 02:33:28;;;;;;;;;10.50;10.00;;;;;26.55;41.41;100300.88;5016253;28;45716;-78
2022/07/25 02:35:54;;;;;;;;;8.00;8.00;;;;;26.53;41.33;100302.97;5016170;28;45662;-78
2022/07/25 02:38:19;;;;;;;;;7.00;6.50;;;;;26.49;41.05;100307.13;5016465;28;45705;-79
2022/07/25 02:40:50;;;;;;;;;7.00;7.00;;;;;26.38;41.38;100304.34;5016171;28;45525;-78
2022/07/25 02:43:17;;;;;;;;;6.25;6.00;;;;;26.24;40.97;100320.56;5016560;28;45522;-80
2022/07/25 02:45:42;;;;;;;;;5.00;4.50;;;;;26.05;40.66;100318.81;5016151;28;45528;-78
2022/07/25 02:48:08;;;;;;;;;5.00;4.25;;;;;25.88;41.01;100307.75;5016372;28;46020;-80
2022/07/25 02:50:34;;;;;;;;;7.50;4.50;;;;;25.71;41.08;100314.66;5016272;28;46011;-79
2022/07/25 02:56:21;;;;;;;;;4.00;4.00;;;;;25.17;42.04;100312.38;5015729;28;46024;-79
2022/07/25 02:58:56;;;;;;;;;5.00;4.75;;;;;25.02;42.06;100298.41;5016170;28;46159;-76
2022/07/25 03:01:31;;;;;;;;;3.75;3.25;;;;;24.89;41.96;100320.69;5016451;28;45922;-78
2022/07/25 03:03:56;;;;;;;;;5.75;4.75;;;;;24.79;42.35;100298.00;5000296;28;45516;-78
2022/07/25 03:06:37;;;;;;;;;5.75;3.00;;;;;24.69;42.31;100298.44;5016425;28;45658;-80
2022/07/25 03:09:09;;;;;;;;;4.75;4.75;;;;;24.67;42.37;100312.03;5012887;28;46064;-77
2022/07/25 03:11:34;;;;;;;;;5.00;5.00;;;;;24.57;42.27;100300.94;5019227;28;45758;-76
2022/07/25 03:14:00;;;;;;;;;4.00;3.25;;;;;24.63;42.65;100305.47;5020348;28;45604;-76
2022/07/25 03:16:25;;;;;;;;;4.00;3.75;;;;;24.63;42.17;100316.16;5020728;28;45570;-74
2022/07/25 03:18:51;;;;;;;;;3.00;3.00;;;;;24.60;41.97;100321.97;5018507;28;45689;-76
2022/07/25 03:21:16;;;;;;;;;2.50;2.50;;;;;24.53;42.33;100305.06;4999768;28;45774;-76
2022/07/25 03:23:42;;;;;;;;;3.00;2.75;;;;;24.55;42.21;100315.56;5016605;28;45650;-78
2022/07/25 03:26:07;;;;;;;;;2.50;2.50;;;;;24.53;41.79;100314.94;5015449;28;46591;-78
2022/07/25 03:28:33;;;;;;;;;2.25;2.00;;;;;24.42;42.58;100313.72;4997389;28;45725;-78
2022/07/25 03:30:58;;;;;;;;;3.75;3.75;;;;;24.33;41.94;100328.34;5015436;28;45648;-79
2022/07/25 03:33:24;;;;;;;;;2.50;2.50;;;;;24.28;41.76;100330.00;5015376;28;45828;-77
2022/07/25 03:35:49;;;;;;;;;2.00;2.00;;;;;24.20;42.50;100331.00;5015273;28;47446;-77
2022/07/25 03:41:36;;;;;;;;;2.25;2.25;;;;;24.01;42.66;100355.88;5014805;28;45817;-81
2022/07/25 03:44:02;;;;;;;;;2.25;2.00;;;;;23.95;42.78;100337.94;5015478;28;45825;-79
2022/07/25 03:46:27;;;;;;;;;2.00;2.00;;;;;23.90;42.63;100348.41;5014880;28;46441;-80
2022/07/25 03:48:54;;;;;;;;;2.00;2.00;;;;;23.87;42.60;100359.50;5015126;28;45679;-75
2022/07/25 03:51:19;;;;;;;;;2.00;2.00;;;;;23.81;42.44;100358.47;5015283;28;45693;-78
2022/07/25 03:57:06;;;;;;;;;1.50;1.50;;;;;23.77;42.69;100357.22;5014307;28;46077;-79
2022/07/25 03:59:31;;;;;;;;;1.50;1.00;;;;;23.79;42.37;100368.56;5015124;28;45538;-74
2022/07/25 04:01:57;;;;;;;;;3.00;2.00;;;;;23.73;42.79;100374.72;5014754;28;45716;-79
2022/07/25 04:04:22;;;;;;;;;1.25;1.25;;;;;23.68;42.36;100380.66;5014941;28;45817;-81
2022/07/25 04:06:48;;;;;;;;;2.00;2.00;;;;;23.64;42.40;100374.06;5015059;28;45605;-75
2022/07/25 04:09:14;;;;;;;;;2.00;2.00;;;;;23.58;42.36;100368.69;5014761;28;45606;-77
2022/07/25 04:11:40;;;;;;;;;2.25;2.25;;;;;23.53;42.95;100365.78;5014829;28;45582;-78
2022/07/25 04:14:09;;;;;;;;;1.75;1.75;;;;;23.52;42.23;100369.47;5014646;28;45531;-79
2022/07/25 04:16:34;;;;;;;;;1.00;1.00;;;;;23.45;43.22;100382.78;5014477;28;46519;-79
2022/07/25 04:19:01;;;;;;;;;1.25;1.00;;;;;23.41;42.83;100371.66;5014311;28;45756;-79
2022/07/25 04:21:26;;;;;;;;;2.00;2.00;;;;;23.43;43.17;100387.50;5014292;28;45800;-81
2022/07/25 04:27:13;;;;;;;;;1.00;1.00;;;;;23.33;42.84;100376.31;5014383;28;46222;-78
2022/07/25 04:29:39;;;;;;;;;2.00;2.00;;;;;23.27;43.47;100380.63;5014653;28;46154;-79
2022/07/25 04:32:07;;;;;;;;;1.00;1.00;;;;;23.21;43.51;100396.66;5014528;28;45820;-80
2022/07/25 04:34:33;;;;;;;;;2.00;2.00;;;;;23.19;44.10;100380.78;5014573;28;45861;-78
2022/07/25 04:36:58;;;;;;;;;1.25;1.00;;;;;23.13;44.14;100391.44;4996236;28;47110;-77
2022/07/25 04:42:45;;;;;;;;;3.00;2.00;;;;;23.03;44.74;100397.13;5014080;28;45511;-78
2022/07/25 04:45:11;;;;;;;;;2.75;2.00;;;;;23.01;44.57;100393.81;5014135;28;45656;-79
2022/07/25 04:47:37;;;;;;;;;1.75;1.75;;;;;22.97;45.61;100404.06;5014383;28;45613;-77
2022/07/25 04:50:02;;;;;;;;;3.00;1.50;;;;;22.92;46.10;100395.00;4995931;28;47351;-78
2022/07/25 04:52:28;;;;;;;;;2.00;2.00;;;;;22.89;45.54;100382.00;5013184;28;45707;-77
2022/07/25 04:54:53;;;;;;;;;4.00;1.00;;;;;22.93;46.14;100399.31;5014507;28;45868;-78
2022/07/25 04:57:24;;;;;;;;;2.00;2.00;;;;;22.87;46.09;100376.03;5013791;28;45568;-79
2022/07/25 04:59:50;;;;;;;;;1.00;1.00;;;;;22.95;46.16;100389.25;4995898;28;46544;-78
2022/07/25 05:02:16;;;;;;;;;0.75;0.00;;;;;23.02;46.83;100390.13;4995459;28;45940;-79
2022/07/25 05:04:41;;;;;;;;;1.25;1.00;;;;;22.94;46.87;100383.06;5013979;28;45545;-78
2022/07/25 05:07:07;;;;;;;;;2.00;1.75;;;;;23.03;47.05;100402.47;5014172;28;46626;-78
2022/07/25 05:12:55;;;;;;;;;1.75;1.00;;;;;23.04;47.32;100393.44;5013497;28;45643;-79
2022/07/25 05:15:20;;;;;;;;;1.00;1.00;;;;;23.11;48.21;100418.34;5014018;28;45787;-79
2022/07/25 05:17:46;;;;;;;;;1.50;1.50;;;;;23.05;48.10;100396.94;5013565;28;47355;-79
2022/07/25 05:20:12;;;;;;;;;1.00;1.00;;;;;23.07;47.95;100414.41;5013655;28;45692;-77
2022/07/25 05:22:38;;;;;;;;;2.50;2.00;;;;;23.02;47.98;100396.31;5013832;28;45635;-78
2022/07/25 05:28:25;;;;;;;;;2.00;2.00;;;;;22.94;48.44;100415.13;5013642;28;46070;-78
2022/07/25 05:30:51;;;;;;;;;1.00;1.00;;;;;22.87;48.67;100424.97;5013962;28;45689;-80
2022/07/25 05:33:16;;;;;;;;;2.00;2.00;;;;;22.85;49.52;100427.00;5013910;28;45640;-79
2022/07/25 05:35:41;;;;;;;;;2.00;1.00;;;;;22.80;49.17;100428.59;5013778;28;45728;-79
2022/07/25 05:38:07;;;;;;;;;2.75;2.25;;;;;22.78;49.12;100433.31;5013467;28;45595;-79
2022/07/25 05:40:32;;;;;;;;;1.50;1.50;;;;;22.76;50.06;100424.66;4995291;28;47009;-78
2022/07/25 05:42:57;;;;;;;;;1.50;1.50;;;;;22.76;49.64;100430.00;5013300;28;45559;-78
2022/07/25 05:45:23;;;;;;;;;2.50;1.75;;;;;22.68;49.57;100428.25;5013741;28;45725;-76
2022/07/25 05:47:49;;;;;;;;;2.50;2.00;;;;;22.65;50.18;100433.16;5012474;28;47081;-77
2022/07/25 05:50:14;;;;;;;;;3.00;2.00;;;;;22.64;50.26;100434.16;5013044;28;47006;-79
2022/07/25 05:59:43;;;;;;;;;4.00;2.25;;;;;22.54;50.06;100439.84;4931754;28;46079;-76
2022/07/25 06:02:53;;;;;;;;;2.00;2.00;;;;;22.54;49.87;100456.69;4932125;28;47114;-78
2022/07/25 06:05:18;;;;;;;;;3.00;2.00;;;;;22.40;50.94;100422.84;4916286;28;45719;-79
2022/07/25 06:08:09;;;;;;;;;2.00;2.00;;;;;22.48;50.88;100453.94;4917078;28;45594;-85
2022/07/25 06:13:56;;;;;;;;;2.25;2.00;;;;;22.48;51.12;100456.63;4918815;28;45848;-83
2022/07/25 06:16:22;;;;;;;;;2.00;2.00;;;;;22.50;51.37;100459.94;4919107;28;45657;-86
2022/07/25 06:19:08;;;;;;;;;3.00;2.00;;;;;22.52;51.35;100461.38;4921494;28;45612;-83
2022/07/25 06:21:33;;;;;;;;;2.00;2.00;;;;;22.55;50.76;100473.53;4922109;28;46858;-78
2022/07/25 06:23:58;;;;;;;;;3.00;2.75;;;;;22.54;50.48;100454.03;4921005;28;45789;-82
2022/07/25 06:29:24;;;;;;;;;4.00;3.00;;;;;22.58;51.09;100462.47;4862432;29;46117;-87
2022/07/25 06:31:50;;;;;;;;;4.00;3.00;;;;;22.63;50.38;100468.06;4872222;29;48533;-88
2022/07/25 06:34:16;;;;;;;;;2.25;2.00;;;;;22.58;50.39;100482.00;4899417;29;46238;-83
2022/07/25 06:36:41;;;;;;;;;2.50;2.00;;;;;22.56;50.85;100470.66;4924031;28;45681;-89
2022/07/25 06:39:06;;;;;;;;;4.25;3.75;;;;;22.62;51.01;100477.09;4938396;28;45498;-87
2022/07/25 06:41:32;;;;;;;;;1.00;1.00;;;;;22.62;51.31;100478.97;4939156;28;45573;-85
2022/07/25 06:43:57;;;;;;;;;2.00;2.00;;;;;22.60;50.96;100471.97;4936766;28;45686;-86
2022/07/25 06:46:25;;;;;;;;;2.00;2.00;;;;;22.59;51.47;100482.81;4938300;28;45466;-90
2022/07/25 06:48:50;;;;;;;;;3.50;2.00;;;;;22.54;50.82;100486.06;4939254;28;45658;-91
2022/07/25 06:51:16;;;;;;;;;2.00;2.00;;;;;22.57;51.42;100482.16;4939859;28;46333;-87
2022/07/25 06:53:41;;;;;;;;;3.25;2.00;;;;;22.57;51.77;100508.88;4939084;28;45584;-83
2022/07/25 06:59:28;;;;;;;;;3.00;2.00;;;;;22.59;52.56;100497.00;4936774;28;45566;-79
2022/07/25 07:01:54;;;;;;;;;2.50;2.50;;;;;22.62;52.09;100490.44;4919917;28;47547;-85
2022/07/25 07:04:19;;;;;;;;;1.00;1.00;;;;;22.67;52.19;100497.91;4935550;28;45783;-82
2022/07/25 07:06:44;;;;;;;;;4.50;3.25;;;;;22.67;51.69;100506.75;4983390;28;46023;-79
2022/07/25 07:09:10;;;;;;;;;2.00;2.00;;;;;22.66;51.92;100510.44;5015809;28;45752;-79
2022/07/25 07:11:35;;;;;;;;;3.25;3.25;;;;;22.66;52.47;100507.75;5015386;28;45822;-77
2022/07/25 07:14:02;;;;;;;;;2.25;1.75;;;;;22.66;52.47;100510.44;5015182;28;45766;-78
2022/07/25 07:16:28;;;;;;;;;2.25;2.25;;;;;22.64;52.45;100515.13;5014746;28;45599;-79
2022/07/25 07:18:54;;;;;;;;;2.00;1.25;;;;;22.65;52.57;100497.25;4997495;28;45631;-81
2022/07/25 07:21:19;;;;;;;;;0.00;0.00;;;;;22.75;52.12;100524.50;5015333;28;46959;-79
2022/07/25 07:23:45;;;;;;;;;2.25;2.00;;;;;22.78;52.27;100510.78;5015472;28;46538;-77
2022/07/25 07:29:32;;;;;;;;;3.75;3.00;;;;;22.80;52.26;100525.59;5018309;28;45795;-91
2022/07/25 07:31:57;;;;;;;;;3.00;2.00;;;;;22.80;52.21;100522.09;5019369;28;46474;-87
2022/07/25 07:34:23;;;;;;;;;1.25;1.25;;;;;22.81;52.34;100519.25;5019004;28;46120;-90
2022/07/25 07:36:49;;;;;;;;;3.00;2.00;;;;;22.81;52.45;100516.56;4987240;28;45585;-93
2022/07/25 07:39:15;;;;;;;;;2.00;2.00;;;;;22.80;51.93;100533.63;5020532;28;45550;-85
2022/07/25 07:41:40;;;;;;;;;2.75;2.25;;;;;22.79;52.11;100533.81;5020254;28;45543;-91
2022/07/25 07:44:58;;;;;;;;;3.00;2.00;;;;;22.79;52.40;100526.63;5020296;28;46851;-90
2022/07/25 07:47:51;;;;;;;;;2.25;2.00;;;;;22.82;52.65;100531.59;5003816;28;45679;-91
2022/07/25 07:50:21;;;;;;;;;4.50;2.00;;;;;22.68;52.77;100510.22;5008095;28;45801;-93
2022/07/25 07:52:48;;;;;;;;;2.00;2.00;;;;;22.90;52.81;100538.63;5020489;28;45772;-91
2022/07/25 07:58:44;;;;;;;;;2.00;2.00;;;;;22.98;52.24;100541.19;5015082;28;45694;-77
2022/07/25 08:01:09;;;;;;;;;3.00;1.75;;;;;22.95;52.96;100537.06;5014292;28;46282;-77
2022/07/25 08:03:35;;;;;;;;;2.00;2.00;;;;;23.06;52.55;100541.06;5015234;28;46030;-77
2022/07/25 08:06:00;;;;;;;;;2.00;2.00;;;;;23.11;52.23;100535.13;5015340;28;45842;-78
2022/07/25 08:08:25;;;;;;;;;2.25;2.00;;;;;23.16;52.23;100546.91;4996567;28;45798;-79
2022/07/25 08:10:51;;;;;;;;;1.25;1.25;;;;;23.22;52.67;100550.66;5014364;28;45861;-75
2022/07/25 08:13:22;;;;;;;;;1.00;1.00;;;;;23.28;52.92;100560.59;5014446;28;45597;-73
2022/07/25 08:15:51;;;;;;;;;1.00;0.25;;;;;23.34;52.78;100563.31;5014406;28;46353;-76
2022/07/25 08:18:17;;;;;;;;;0.50;0.50;;;;;23.40;52.41;100565.22;5014458;28;45527;-76
2022/07/25 08:20:42;;;;;;;;;0.50;0.00;;;;;23.47;52.84;100562.66;4996252;28;46015;-75
2022/07/25 08:23:11;;;;;;;;;0.50;0.50;;;;;23.52;52.29;100573.59;5014062;28;46347;-75
2022/07/25 08:25:36;;;;;;;;;3.00;1.00;;;;;23.55;52.39;100558.97;5014191;28;45946;-78
2022/07/25 08:28:03;;;;;;;;;2.00;1.00;;;;;23.63;52.08;100548.16;4996046;28;45701;-75
2022/07/25 08:30:28;;;;;;;;;2.00;1.00;;;;;23.65;51.85;100552.28;5021884;28;45778;-76
2022/07/25 08:32:56;;;;;;;;;0.25;0.25;;;;;23.75;51.77;100560.78;5020626;28;46980;-76
2022/07/25 08:35:23;;;;;;;;;1.00;1.00;;;;;23.79;52.13;100556.72;5014455;28;45702;-77
2022/07/25 08:37:50;;;;;;;;;0.00;0.00;;;;;23.81;52.11;100551.97;4996355;28;45671;-79
2022/07/25 08:40:17;;;;;;;;;1.00;1.00;;;;;23.88;51.45;100559.22;4996729;28;46078;-79
2022/07/25 08:42:43;;;;;;;;;1.00;1.00;;;;;23.86;50.96;100551.38;5014208;28;45530;-78
2022/07/25 08:45:12;;;;;;;;;1.25;1.00;;;;;23.96;51.43;100554.53;5014391;28;46231;-80
2022/07/25 08:47:39;;;;;;;;;1.00;1.00;;;;;23.98;50.56;100573.91;4996215;28;45764;-81
2022/07/25 08:50:07;;;;;;;;;1.00;1.00;;;;;24.02;50.15;100556.41;5014577;28;45835;-79
2022/07/25 08:52:34;;;;;;;;;1.00;1.00;;;;;24.11;50.62;100560.59;5014255;28;45655;-77
2022/07/25 08:55:03;;;;;;;;;1.00;1.00;;;;;24.17;50.41;100562.50;5013942;28;46214;-80
2022/07/25 08:57:29;;;;;;;;;1.25;1.25;;;;;24.17;50.78;100553.63;5014033;28;45778;-82
2022/07/25 08:59:58;;;;;;;;;2.00;2.00;;;;;24.39;50.27;100559.72;5013790;28;45539;-78
2022/07/25 09:02:27;;;;;;;;;1.75;1.00;;;;;24.54;50.19;100563.06;5013886;28;45780;-78
2022/07/25 09:04:54;;;;;;;;;1.00;1.00;;;;;24.71;50.04;100563.53;5014100;28;46436;-80
2022/07/25 09:07:35;;;;;;;;;1.00;1.00;;;;;24.83;49.87;100560.06;5013391;28;45759;-79
2022/07/25 09:10:24;;;;;;;;;1.75;1.75;;;;;24.97;49.61;100574.34;5012970;28;45624;-80
2022/07/25 09:13:40;;;;;;;;;;;;;;;;;;;;;
2022/07/25 09:23:36;;;;;;;;;1.00;1.00;;;;;25.05;49.13;100590.25;4858863;28;45972;-79
2022/07/25 09:33:08;;;;;;;;;1.00;1.00;;;;;25.19;48.74;100567.78;4783884;29;45872;-81
2022/07/25 09:35:37;;;;;;;;;2.00;2.00;;;;;25.44;48.43;100603.69;4783978;29;45675;-78
2022/07/25 09:39:57;;;;;;;;;1.00;1.00;;;;;25.36;48.02;100557.47;4786679;29;46612;-84
2022/07/25 09:41:52;;;;;;;;;1.75;1.75;;;;;25.46;47.02;100600.81;4754156;29;45872;-90
2022/07/25 09:44:35;;;;;;;;;1.00;1.00;;;;;25.57;47.05;100628.94;4755350;29;45696;-88
2022/07/25 09:47:12;;;;;;;;;1.75;1.75;;;;;25.53;46.87;100587.41;4756227;29;45652;-85
2022/07/25 09:49:40;;;;;;;;;2.00;2.00;;;;;25.57;46.72;100605.59;4754379;29;46521;-83
2022/07/25 09:52:06;;;;;;;;;1.75;1.25;;;;;25.53;47.05;100601.66;4750944;29;46251;-87
2022/07/25 10:01:36;;;;;;;;;2.00;2.00;;;;;25.66;46.32;100614.25;4719609;30;46785;-87
2022/07/25 10:07:49;;;;;;;;;1.00;1.00;;;;;25.57;46.12;100589.50;4785704;29;45771;-85
2022/07/25 10:17:26;;;;;;;;;3.00;2.50;;;;;25.85;45.72;100600.00;4731978;30;45963;-86
2022/07/25 10:19:51;;;;;;;;;3.00;2.00;;;;;25.93;45.63;100615.88;4752166;29;45996;-84
2022/07/25 10:22:17;;;;;;;;;2.00;2.00;;;;;25.88;45.46;100624.56;4767327;29;45562;-86
2022/07/25 10:24:45;;;;;;;;;1.00;1.00;;;;;25.85;45.62;100627.69;4767485;29;47199;-81
2022/07/25 10:30:37;;;;;;;;;2.00;1.75;;;;;25.75;45.69;100624.56;4768573;29;45582;-84
2022/07/25 10:33:14;;;;;;;;;1.00;1.00;;;;;25.68;46.06;100620.25;4767908;29;45689;-88
2022/07/25 10:35:41;;;;;;;;;2.00;2.00;;;;;25.73;45.70;100629.34;4829979;29;45664;-87
2022/07/25 10:38:06;;;;;;;;;2.00;2.00;;;;;25.73;45.68;100623.16;4879384;29;46240;-85
2022/07/25 10:44:15;;;;;;;;;2.00;2.00;;;;;25.83;46.00;100650.38;4880629;29;45776;-86
2022/07/25 10:46:43;;;;;;;;;2.00;2.00;;;;;25.85;46.05;100645.66;4880319;29;45565;-86
2022/07/25 10:49:17;;;;;;;;;2.50;2.50;;;;;25.83;45.72;100634.28;4878923;29;46143;-85
2022/07/25 10:51:55;;;;;;;;;2.00;2.00;;;;;25.80;45.99;100650.81;4883615;29;45841;-82
2022/07/25 10:54:21;;;;;;;;;1.50;1.50;;;;;25.77;46.25;100652.03;4972144;28;45952;-83
2022/07/25 11:00:09;;;;;;;;;2.00;2.00;;;;;25.68;46.13;100650.59;5000370;28;45933;-86
2022/07/25 11:02:35;;;;;;;;;1.50;1.50;;;;;25.70;46.55;100650.38;5016053;28;45571;-83
2022/07/25 11:05:02;;;;;;;;;1.50;1.00;;;;;25.73;46.41;100664.25;5021957;28;45499;-79
2022/07/25 11:07:34;;;;;;;;;2.00;2.00;;;;;25.77;46.32;100651.22;5019911;28;45768;-84
2022/07/25 11:10:02;;;;;;;;;2.75;1.75;;;;;25.84;46.23;100660.94;5019907;28;46076;-83
2022/07/25 11:15:50;;;;;;;;;3.00;2.00;;;;;25.85;46.75;100657.22;5018511;28;45575;-83
2022/07/25 11:18:17;;;;;;;;;1.00;1.00;;;;;25.86;46.79;100652.66;5018624;28;45641;-90
2022/07/25 11:20:42;;;;;;;;;2.00;2.00;;;;;25.84;46.86;100668.16;5019459;28;46248;-83
2022/07/25 11:23:08;;;;;;;;;3.00;2.50;;;;;25.79;46.99;100658.03;5018050;28;45701;-87
2022/07/25 11:25:33;;;;;;;;;2.00;2.00;;;;;25.79;46.76;100679.53;5018181;28;45615;-84
2022/07/25 11:31:21;;;;;;;;;1.50;1.00;;;;;25.67;46.55;100651.63;5017356;28;45639;-84
2022/07/25 11:33:48;;;;;;;;;3.00;2.00;;;;;25.68;46.56;100650.59;5018936;28;45697;-84
2022/07/25 11:36:14;;;;;;;;;3.00;2.00;;;;;25.78;46.76;100655.56;5018290;28;45578;-87
2022/07/25 11:38:41;;;;;;;;;3.75;3.00;;;;;25.79;46.50;100663.41;5018835;28;45740;-84
2022/07/25 11:41:07;;;;;;;;;1.75;1.75;;;;;25.79;46.40;100654.53;5001384;28;47902;-81
2022/07/25 11:43:33;;;;;;;;;2.00;2.00;;;;;25.82;46.19;100654.94;5019857;28;45883;-87
2022/07/25 11:46:05;;;;;;;;;3.00;2.00;;;;;25.92;46.11;100658.03;5020146;28;45643;-85
2022/07/25 11:48:36;;;;;;;;;2.25;2.00;;;;;25.98;45.48;100636.75;5019440;28;45733;-84
2022/07/25 11:51:13;;;;;;;;;1.75;1.75;;;;;26.03;45.18;100639.63;5018606;28;45962;-85
2022/07/25 11:53:44;;;;;;;;;3.25;2.25;;;;;26.04;44.43;100634.06;5020151;28;45575;-88
2022/07/25 11:56:14;;;;;;;;;2.75;2.00;;;;;26.13;44.70;100645.38;5018660;28;45452;-85
2022/07/25 11:58:39;;;;;;;;;2.25;2.00;;;;;26.19;44.34;100641.88;5018048;28;45629;-86
2022/07/25 12:01:14;;;;;;;;;2.25;2.00;;;;;26.21;43.85;100658.63;5017146;28;45927;-84
2022/07/25 12:03:40;;;;;;;;;1.25;1.25;;;;;26.30;43.92;100650.13;5017974;28;45711;-88
2022/07/25 12:06:07;;;;;;;;;3.00;2.25;;;;;26.29;44.02;100627.00;5017820;28;45464;-84
2022/07/25 12:08:37;;;;;;;;;2.00;2.00;;;;;26.36;43.78;100672.66;5017913;28;45555;-84
2022/07/25 12:11:03;;;;;;;;;3.25;3.00;;;;;26.43;43.51;100635.03;5017468;28;45547;-87
2022/07/25 12:16:50;;;;;;;;;2.75;2.75;;;;;26.62;43.60;100634.94;5017622;28;45693;-88
2022/07/25 12:19:20;;;;;;;;;3.50;2.00;;;;;26.73;42.35;100646.91;5016766;28;46632;-82
2022/07/25 12:21:46;;;;;;;;;3.50;2.00;;;;;26.73;41.77;100614.63;5016436;28;45769;-83
2022/07/25 12:24:12;;;;;;;;;2.00;2.00;;;;;26.81;42.08;100641.28;5016443;28;45627;-86
2022/07/25 12:26:38;;;;;;;;;4.00;3.00;;;;;26.84;41.74;100640.03;5017118;28;45750;-82
2022/07/25 12:29:03;;;;;;;;;0.00;0.00;;;;;26.91;41.97;100632.78;5016675;28;45963;-86
2022/07/25 12:31:29;;;;;;;;;2.00;2.00;;;;;26.97;41.94;100653.44;5016378;28;45618;-82
2022/07/25 12:33:54;;;;;;;;;1.00;1.00;;;;;26.90;41.65;100634.66;5015856;28;45701;-83
2022/07/25 12:36:20;;;;;;;;;2.00;2.00;;;;;26.86;41.64;100627.19;5016782;28;45667;-85
2022/07/25 12:38:45;;;;;;;;;3.00;3.00;;;;;26.86;41.44;100656.78;5015887;28;46601;-87
2022/07/25 12:41:11;;;;;;;;;2.25;2.00;;;;;26.84;40.42;100634.63;5016544;28;45637;-84
2022/07/25 12:46:58;;;;;;;;;1.50;1.50;;;;;26.67;40.68;100616.31;5016416;28;45610;-86
2022/07/25 12:49:24;;;;;;;;;1.00;0.75;;;;;26.70;40.13;100623.97;5016960;28;46899;-87
2022/07/25 12:51:49;;;;;;;;;2.00;2.00;;;;;26.74;40.34;100635.94;5017268;28;46337;-87
2022/07/25 12:54:16;;;;;;;;;1.00;1.00;;;;;26.76;39.59;100638.41;5017823;28;45578;-85
2022/07/25 12:56:41;;;;;;;;;2.25;1.50;;;;;26.76;39.35;100618.78;5016858;28;45613;-84
2022/07/25 12:59:06;;;;;;;;;2.00;2.00;;;;;26.76;39.32;100618.78;5016318;28;46538;-86
2022/07/25 13:01:32;;;;;;;;;1.00;1.00;;;;;26.77;38.73;100617.75;5016166;28;45622;-86
2022/07/25 13:03:57;;;;;;;;;1.00;1.00;;;;;26.87;39.04;100627.03;4999012;28;45657;-81
2022/07/25 13:06:23;;;;;;;;;1.00;1.00;;;;;26.92;39.33;100629.06;5016805;28;45573;-86
2022/07/25 13:08:48;;;;;;;;;2.00;2.00;;;;;26.96;39.13;100627.59;5017337;28;46378;-84
2022/07/25 13:11:14;;;;;;;;;1.00;1.00;;;;;27.00;39.44;100631.47;5017221;28;46486;-86
2022/07/25 13:17:01;;;;;;;;;1.75;1.75;;;;;27.09;39.13;100625.66;5017227;28;45627;-82
2022/07/25 13:19:27;;;;;;;;;2.00;2.00;;;;;27.13;38.89;100640.31;5017484;28;46786;-83
2022/07/25 13:21:52;;;;;;;;;1.00;1.00;;;;;27.20;38.56;100632.22;5016590;28;46397;-83
2022/07/25 13:24:18;;;;;;;;;1.00;1.00;;;;;27.18;37.98;100639.66;5016587;28;45678;-83
2022/07/25 13:26:44;;;;;;;;;2.00;1.00;;;;;27.20;37.37;100624.13;5015743;28;45671;-86
2022/07/25 13:29:10;;;;;;;;;1.00;1.00;;;;;27.22;37.67;100626.59;5015753;28;47054;-85
2022/07/25 13:31:37;;;;;;;;;1.00;1.00;;;;;27.26;37.65;100609.78;5015452;28;45709;-83
2022/07/25 13:34:02;;;;;;;;;1.75;1.00;;;;;27.26;36.95;100620.56;5015904;28;45504;-83